Time;durP1;ratioP1;P1;durP2;ratioP2;P2;SDS_P1;SDS_P2;PMS_P1;PMS_P2;Temp;Humidity;BMP_temperature;BMP_pressure;BME280_temperature;BME280_humidity;BME280_pressure;Samples;Min_cycle;Max_cycle;Signal;HPM_P1;HPM_P2
2023/08/28 00:01:11;;;;;;;947.83;860.55;;;;;;;;;;5015402;28;20130;-60
2023/08/28 00:03:40;;;;;;;962.95;874.65;;;;;;;;;;5012876;28;20096;-60
2023/08/28 00:06:07;;;;;;;959.20;871.03;;;;;;;;;;5016834;28;20034;-60
2023/08/28 00:08:34;;;;;;;961.13;873.47;;;;;;;;;;5015785;28;20483;-59
2023/08/28 00:11:02;;;;;;;964.15;872.60;;;;;;;;;;5019530;28;20046;-60
2023/08/28 00:13:29;;;;;;;949.90;861.40;;;;;;;;;;5016022;28;20065;-60
2023/08/28 00:15:55;;;;;;;956.25;868.50;;;;;;;;;;5014733;28;20072;-60
2023/08/28 00:18:22;;;;;;;960.38;871.55;;;;;;;;;;5015119;28;20091;-60
2023/08/28 00:20:48;;;;;;;954.75;865.47;;;;;;;;;;5019270;28;20041;-60
2023/08/28 00:23:15;;;;;;;965.28;874.30;;;;;;;;;;5016493;28;20065;-60
2023/08/28 00:25:42;;;;;;;955.47;868.15;;;;;;;;;;5018842;28;20046;-60
2023/08/28 00:28:08;;;;;;;960.67;871.72;;;;;;;;;;5016650;28;20048;-60
2023/08/28 00:30:35;;;;;;;959.10;870.33;;;;;;;;;;5013360;28;20064;-59
2023/08/28 00:33:01;;;;;;;968.42;878.28;;;;;;;;;;5013957;28;20073;-61
2023/08/28 00:35:28;;;;;;;962.05;871.17;;;;;;;;;;5016663;28;20610;-60
2023/08/28 00:37:55;;;;;;;956.85;869.40;;;;;;;;;;5017431;28;20065;-59
2023/08/28 00:40:22;;;;;;;953.20;865.13;;;;;;;;;;5018187;28;20045;-61
2023/08/28 00:42:48;;;;;;;954.03;865.55;;;;;;;;;;5009951;28;20050;-61
2023/08/28 00:45:15;;;;;;;959.13;871.42;;;;;;;;;;5016627;28;20054;-60
2023/08/28 00:47:43;;;;;;;966.13;877.95;;;;;;;;;;5032717;28;20053;-61
2023/08/28 00:50:10;;;;;;;965.72;873.33;;;;;;;;;;5017028;28;20080;-60
2023/08/28 00:52:37;;;;;;;959.83;871.30;;;;;;;;;;5030869;28;20068;-61
2023/08/28 00:55:04;;;;;;;953.42;866.72;;;;;;;;;;5017061;28;20107;-61
2023/08/28 00:57:31;;;;;;;964.15;874.20;;;;;;;;;;5012249;28;20058;-60
2023/08/28 00:59:59;;;;;;;958.67;872.40;;;;;;;;;;5014797;28;20037;-60
2023/08/28 01:02:26;;;;;;;953.70;866.55;;;;;;;;;;5004755;28;20052;-60
2023/08/28 01:04:53;;;;;;;953.45;866.10;;;;;;;;;;5016607;28;20081;-61
2023/08/28 01:07:25;;;;;;;953.58;866.63;;;;;;;;;;5030787;28;20132;-61
2023/08/28 01:10:04;;;;;;;939.25;853.75;;;;;;;;;;5013922;28;20499;-59
2023/08/28 01:12:33;;;;;;;944.97;858.38;;;;;;;;;;5014030;28;20402;-60
2023/08/28 01:15:07;;;;;;;944.60;858.00;;;;;;;;;;5017092;28;20088;-60
2023/08/28 01:17:35;;;;;;;949.05;860.60;;;;;;;;;;5018595;28;20225;-61
2023/08/28 01:20:04;;;;;;;944.55;858.20;;;;;;;;;;5034496;28;20137;-60
2023/08/28 01:22:35;;;;;;;957.90;868.97;;;;;;;;;;5011998;28;20049;-60
2023/08/28 01:25:10;;;;;;;935.20;846.67;;;;;;;;;;5017388;28;20115;-60
2023/08/28 01:27:37;;;;;;;934.92;848.05;;;;;;;;;;5028281;28;20157;-60
2023/08/28 01:30:05;;;;;;;944.63;856.17;;;;;;;;;;5016334;28;20042;-61
2023/08/28 01:32:34;;;;;;;934.65;847.70;;;;;;;;;;5015512;28;20034;-60
2023/08/28 01:35:01;;;;;;;932.67;845.80;;;;;;;;;;5016673;28;20108;-61
2023/08/28 01:37:39;;;;;;;930.75;842.05;;;;;;;;;;5014016;28;20053;-60
2023/08/28 01:40:07;;;;;;;923.38;836.85;;;;;;;;;;5012055;28;20054;-60
2023/08/28 01:42:33;;;;;;;924.63;837.17;;;;;;;;;;5011148;28;20057;-60
2023/08/28 01:45:01;;;;;;;918.75;832.75;;;;;;;;;;5030333;28;20535;-61
2023/08/28 01:47:28;;;;;;;919.95;833.45;;;;;;;;;;5017453;28;20034;-60
2023/08/28 01:49:54;;;;;;;909.22;823.58;;;;;;;;;;5029501;28;20069;-60
2023/08/28 01:52:21;;;;;;;906.85;820.88;;;;;;;;;;5025461;28;20053;-61
2023/08/28 01:54:47;;;;;;;908.67;824.80;;;;;;;;;;5011851;28;20061;-60
2023/08/28 01:57:14;;;;;;;902.15;817.15;;;;;;;;;;5013149;28;20050;-60
2023/08/28 01:59:41;;;;;;;914.70;826.83;;;;;;;;;;5015696;28;20133;-60
2023/08/28 02:02:08;;;;;;;911.25;821.15;;;;;;;;;;5000865;23;20564;-59
2023/08/28 02:04:34;;;;;;;922.85;836.47;;;;;;;;;;4945834;29;20057;-59
2023/08/28 02:07:01;;;;;;;906.67;822.40;;;;;;;;;;4947636;28;20058;-59
2023/08/28 02:09:28;;;;;;;897.15;811.63;;;;;;;;;;4949139;29;20449;-59
2023/08/28 02:11:54;;;;;;;896.75;811.70;;;;;;;;;;4944034;28;20437;-59
2023/08/28 02:14:22;;;;;;;900.28;814.45;;;;;;;;;;4948198;28;20087;-59
2023/08/28 02:16:48;;;;;;;895.55;812.13;;;;;;;;;;4950952;29;20437;-58
2023/08/28 02:19:15;;;;;;;900.08;815.38;;;;;;;;;;4946234;28;20459;-58
2023/08/28 02:21:42;;;;;;;908.35;820.50;;;;;;;;;;4949062;28;20432;-59
2023/08/28 02:24:08;;;;;;;898.08;814.28;;;;;;;;;;4949012;28;20039;-59
2023/08/28 02:26:35;;;;;;;893.67;809.45;;;;;;;;;;4954416;28;20044;-59
2023/08/28 02:29:01;;;;;;;905.10;816.97;;;;;;;;;;4948900;29;20047;-60
2023/08/28 02:31:28;;;;;;;899.95;814.67;;;;;;;;;;4956776;28;20051;-58
2023/08/28 02:33:54;;;;;;;885.22;801.90;;;;;;;;;;4939746;28;20486;-58
2023/08/28 02:36:21;;;;;;;890.83;806.47;;;;;;;;;;4945731;29;20082;-59
2023/08/28 02:38:49;;;;;;;882.05;800.03;;;;;;;;;;4947324;28;20058;-58
2023/08/28 02:41:15;;;;;;;896.05;808.95;;;;;;;;;;4948459;28;20068;-59
2023/08/28 02:43:42;;;;;;;890.10;803.90;;;;;;;;;;4961259;28;20055;-58
2023/08/28 02:46:09;;;;;;;884.75;802.25;;;;;;;;;;4947196;29;20465;-58
2023/08/28 02:48:37;;;;;;;893.85;809.88;;;;;;;;;;4946504;28;20043;-58
2023/08/28 02:51:04;;;;;;;886.63;801.05;;;;;;;;;;4947198;28;20035;-59
2023/08/28 02:53:30;;;;;;;890.00;805.00;;;;;;;;;;4947131;28;20102;-59
2023/08/28 02:56:17;;;;;;;877.00;794.28;;;;;;;;;;4949300;29;20055;-59
2023/08/28 02:58:44;;;;;;;880.45;797.60;;;;;;;;;;4963867;28;20056;-58
2023/08/28 03:01:13;;;;;;;876.28;793.83;;;;;;;;;;4946768;28;20039;-58
2023/08/28 03:03:40;;;;;;;883.20;796.75;;;;;;;;;;4938744;28;20267;-58
2023/08/28 03:06:07;;;;;;;884.25;799.85;;;;;;;;;;4957423;28;20095;-58
2023/08/28 03:08:33;;;;;;;861.05;778.60;;;;;;;;;;4951188;29;21219;-59
2023/08/28 03:11:00;;;;;;;873.90;789.80;;;;;;;;;;4953163;28;20154;-59
2023/08/28 03:13:27;;;;;;;867.33;784.75;;;;;;;;;;4952078;29;20505;-59
2023/08/28 03:15:53;;;;;;;877.60;793.17;;;;;;;;;;4949422;29;20054;-58
2023/08/28 03:18:20;;;;;;;874.55;790.85;;;;;;;;;;4949372;28;20038;-59
2023/08/28 03:20:46;;;;;;;869.08;786.58;;;;;;;;;;4950785;29;20051;-58
2023/08/28 03:23:13;;;;;;;872.03;786.65;;;;;;;;;;4960408;28;20059;-59
2023/08/28 03:25:40;;;;;;;878.67;792.80;;;;;;;;;;4952550;29;20051;-59
2023/08/28 03:28:07;;;;;;;859.20;776.63;;;;;;;;;;4950452;29;20528;-59
2023/08/28 03:30:34;;;;;;;863.03;780.88;;;;;;;;;;4950896;29;20066;-59
2023/08/28 03:33:01;;;;;;;875.83;788.47;;;;;;;;;;4944464;28;20684;-58
2023/08/28 03:35:29;;;;;;;864.88;781.17;;;;;;;;;;4949777;29;20872;-59
2023/08/28 03:37:56;;;;;;;854.25;773.53;;;;;;;;;;4954915;29;20054;-58
2023/08/28 03:40:22;;;;;;;858.85;775.55;;;;;;;;;;4950579;29;20051;-60
2023/08/28 03:42:49;;;;;;;850.53;769.58;;;;;;;;;;4951396;28;20043;-58
2023/08/28 03:45:16;;;;;;;858.53;776.38;;;;;;;;;;4950269;29;20050;-59
2023/08/28 03:47:43;;;;;;;865.05;780.03;;;;;;;;;;4950165;28;20063;-59
2023/08/28 03:50:10;;;;;;;870.92;784.75;;;;;;;;;;4951148;29;20508;-58
2023/08/28 03:52:36;;;;;;;849.72;768.13;;;;;;;;;;4953052;29;20519;-58
2023/08/28 03:55:03;;;;;;;854.30;771.40;;;;;;;;;;4943096;29;20058;-59
2023/08/28 03:57:29;;;;;;;857.45;773.05;;;;;;;;;;4947874;29;20066;-59
2023/08/28 03:59:56;;;;;;;850.78;769.10;;;;;;;;;;4949595;28;20106;-58
2023/08/28 04:02:23;;;;;;;860.03;776.30;;;;;;;;;;4950026;29;20063;-58
2023/08/28 04:04:50;;;;;;;856.33;773.72;;;;;;;;;;4952434;29;20047;-58
2023/08/28 04:07:32;;;;;;;852.85;770.80;;;;;;;;;;4950674;29;20069;-59
2023/08/28 04:10:00;;;;;;;872.05;787.00;;;;;;;;;;4951693;28;20071;-58
2023/08/28 04:12:26;;;;;;;846.08;764.80;;;;;;;;;;4950277;28;20098;-58
2023/08/28 04:14:53;;;;;;;842.22;760.33;;;;;;;;;;4951672;29;20572;-58
2023/08/28 04:17:20;;;;;;;861.90;775.92;;;;;;;;;;4948283;28;20063;-59
2023/08/28 04:19:49;;;;;;;862.80;780.10;;;;;;;;;;4960682;28;20051;-59
2023/08/28 04:22:15;;;;;;;851.63;771.45;;;;;;;;;;4949426;29;20118;-59
2023/08/28 04:24:43;;;;;;;852.25;769.53;;;;;;;;;;4961061;28;20544;-58
2023/08/28 04:27:10;;;;;;;860.42;778.47;;;;;;;;;;4948848;28;20046;-58
2023/08/28 04:29:36;;;;;;;863.35;779.22;;;;;;;;;;4950511;28;20410;-59
2023/08/28 04:32:03;;;;;;;869.17;784.25;;;;;;;;;;4951474;28;20472;-59
2023/08/28 04:34:30;;;;;;;857.03;775.35;;;;;;;;;;4949780;29;20086;-58
2023/08/28 04:36:56;;;;;;;863.05;781.28;;;;;;;;;;4951459;29;20075;-58
2023/08/28 04:39:23;;;;;;;881.42;795.58;;;;;;;;;;4950947;29;20470;-58
2023/08/28 04:41:50;;;;;;;874.53;789.33;;;;;;;;;;4959878;28;20047;-59
2023/08/28 04:44:18;;;;;;;884.10;796.33;;;;;;;;;;4949533;28;20434;-59
2023/08/28 04:46:46;;;;;;;881.95;797.90;;;;;;;;;;4965555;28;20063;-59
2023/08/28 04:49:12;;;;;;;889.17;805.70;;;;;;;;;;4949502;29;20119;-59
2023/08/28 04:51:39;;;;;;;897.70;810.80;;;;;;;;;;4948524;29;20523;-58
2023/08/28 04:54:05;;;;;;;898.72;812.70;;;;;;;;;;4950886;29;20043;-60
2023/08/28 04:56:32;;;;;;;906.25;821.70;;;;;;;;;;4948725;28;20470;-59
2023/08/28 04:59:00;;;;;;;913.33;827.22;;;;;;;;;;4952037;29;20416;-60
2023/08/28 05:01:29;;;;;;;926.55;837.65;;;;;;;;;;4948829;29;20059;-58
2023/08/28 05:03:56;;;;;;;919.10;833.50;;;;;;;;;;4950322;29;20452;-58
2023/08/28 05:06:22;;;;;;;929.60;842.83;;;;;;;;;;4948987;28;20051;-58
2023/08/28 05:08:49;;;;;;;961.10;870.03;;;;;;;;;;4949672;29;20119;-58
2023/08/28 05:11:16;;;;;;;980.35;887.25;;;;;;;;;;4948763;29;20106;-59
2023/08/28 05:13:43;;;;;;;976.92;887.92;;;;;;;;;;4953557;28;20050;-59
2023/08/28 05:16:10;;;;;;;980.70;890.53;;;;;;;;;;4950227;28;20055;-58
2023/08/28 05:18:36;;;;;;;977.47;887.45;;;;;;;;;;4948981;28;20047;-58
2023/08/28 05:21:03;;;;;;;974.50;884.70;;;;;;;;;;4949340;28;20047;-59
2023/08/28 05:23:29;;;;;;;961.28;871.60;;;;;;;;;;4936819;28;20133;-59
2023/08/28 05:25:56;;;;;;;945.03;858.03;;;;;;;;;;4966003;28;20058;-58
2023/08/28 05:28:23;;;;;;;938.88;853.13;;;;;;;;;;4949251;28;20065;-59
2023/08/28 05:30:49;;;;;;;950.60;862.47;;;;;;;;;;4945036;29;20093;-58
2023/08/28 05:33:17;;;;;;;949.15;859.03;;;;;;;;;;4949694;28;20142;-58
2023/08/28 05:35:44;;;;;;;940.97;853.85;;;;;;;;;;4950429;29;20074;-58
2023/08/28 05:38:11;;;;;;;951.83;862.85;;;;;;;;;;4946875;29;20051;-58
2023/08/28 05:40:37;;;;;;;961.33;872.85;;;;;;;;;;4950606;29;20082;-59
2023/08/28 05:43:05;;;;;;;963.78;875.38;;;;;;;;;;4942343;28;20050;-58
2023/08/28 05:45:32;;;;;;;962.45;873.47;;;;;;;;;;4962021;28;20056;-59
2023/08/28 05:47:59;;;;;;;977.10;880.65;;;;;;;;;;4949156;29;20079;-58
2023/08/28 05:50:26;;;;;;;947.08;859.33;;;;;;;;;;4947895;29;20055;-58
2023/08/28 05:52:53;;;;;;;963.97;871.15;;;;;;;;;;4939607;29;20059;-59
2023/08/28 05:55:19;;;;;;;938.70;851.60;;;;;;;;;;4948740;29;20545;-58
2023/08/28 05:57:46;;;;;;;938.10;850.42;;;;;;;;;;4948965;28;20134;-59
2023/08/28 06:00:13;;;;;;;943.45;856.22;;;;;;;;;;4946643;28;20035;-58
2023/08/28 06:02:41;;;;;;;943.08;855.10;;;;;;;;;;4957225;28;20063;-59
2023/08/28 06:05:08;;;;;;;937.28;849.50;;;;;;;;;;4949179;29;20062;-60
2023/08/28 06:07:35;;;;;;;940.70;852.72;;;;;;;;;;4947319;29;20497;-58
2023/08/28 06:10:02;;;;;;;943.95;855.10;;;;;;;;;;4947231;29;20058;-58
2023/08/28 06:12:29;;;;;;;939.88;850.92;;;;;;;;;;4956941;28;20102;-58
2023/08/28 06:14:55;;;;;;;942.28;853.90;;;;;;;;;;4940346;28;20505;-59
2023/08/28 06:17:23;;;;;;;949.72;859.00;;;;;;;;;;4945135;28;20059;-59
2023/08/28 06:19:50;;;;;;;934.67;847.90;;;;;;;;;;4949709;29;20052;-58
2023/08/28 06:22:16;;;;;;;955.35;865.65;;;;;;;;;;4947657;28;20051;-58
2023/08/28 06:24:43;;;;;;;962.47;872.80;;;;;;;;;;4942659;28;20481;-59
2023/08/28 06:27:10;;;;;;;971.83;884.33;;;;;;;;;;4948970;29;20645;-59
2023/08/28 06:29:36;;;;;;;972.85;883.67;;;;;;;;;;4948727;28;20051;-60
2023/08/28 06:32:03;;;;;;;979.10;890.65;;;;;;;;;;4946541;29;20485;-59
2023/08/28 06:34:29;;;;;;;994.90;903.55;;;;;;;;;;4947609;29;20133;-58
2023/08/28 06:36:56;;;;;;;978.15;889.78;;;;;;;;;;4950413;29;20047;-59
2023/08/28 06:39:23;;;;;;;979.00;889.67;;;;;;;;;;4944501;28;20098;-59
2023/08/28 06:41:49;;;;;;;979.72;890.25;;;;;;;;;;4947655;28;20055;-58
2023/08/28 06:44:19;;;;;;;982.03;889.60;;;;;;;;;;4947001;29;20524;-58
2023/08/28 06:46:45;;;;;;;968.42;880.15;;;;;;;;;;4948035;29;20044;-58
2023/08/28 06:49:13;;;;;;;961.90;875.53;;;;;;;;;;4946792;28;20055;-59
2023/08/28 06:51:39;;;;;;;972.75;884.88;;;;;;;;;;4948684;28;20504;-59
2023/08/28 06:54:06;;;;;;;973.30;883.20;;;;;;;;;;4944292;28;20051;-58
2023/08/28 06:56:33;;;;;;;983.63;893.45;;;;;;;;;;4942972;29;20039;-58
2023/08/28 06:58:59;;;;;;;979.70;891.35;;;;;;;;;;4948394;29;20130;-59
2023/08/28 07:01:26;;;;;;;991.97;901.60;;;;;;;;;;4947424;29;20646;-59
2023/08/28 07:03:52;;;;;;;1004.42;913.40;;;;;;;;;;4943518;28;20054;-59
2023/08/28 07:06:19;;;;;;;1005.92;916.90;;;;;;;;;;4945129;29;20055;-59
2023/08/28 07:08:46;;;;;;;1021.03;927.40;;;;;;;;;;4947116;29;20748;-59
2023/08/28 07:11:12;;;;;;;1038.57;944.72;;;;;;;;;;4949641;29;20511;-59
2023/08/28 07:13:39;;;;;;;1045.22;952.00;;;;;;;;;;4950223;29;20118;-59
2023/08/28 07:16:05;;;;;;;1062.97;967.15;;;;;;;;;;4947969;29;20058;-59
2023/08/28 07:18:33;;;;;;;1059.25;965.30;;;;;;;;;;4946189;29;20047;-59
2023/08/28 07:20:59;;;;;;;1069.05;975.20;;;;;;;;;;4948196;29;20054;-58
2023/08/28 07:23:26;;;;;;;1086.93;989.08;;;;;;;;;;4943629;29;20544;-59
2023/08/28 07:25:52;;;;;;;1094.68;996.80;;;;;;;;;;4949775;29;20049;-59
2023/08/28 07:28:20;;;;;;;1097.10;998.22;;;;;;;;;;4950238;28;20071;-59
2023/08/28 07:30:46;;;;;;;1116.07;999.90;;;;;;;;;;4947558;28;20035;-59
2023/08/28 07:33:13;;;;;;;1117.15;999.90;;;;;;;;;;4945733;29;20043;-58
2023/08/28 07:35:43;;;;;;;1123.03;999.90;;;;;;;;;;4946104;28;20532;-60
2023/08/28 07:38:10;;;;;;;1143.28;999.90;;;;;;;;;;4955883;28;20045;-60
2023/08/28 07:40:36;;;;;;;1113.70;999.90;;;;;;;;;;4949198;29;20576;-58
2023/08/28 07:43:03;;;;;;;1118.43;999.90;;;;;;;;;;4947321;28;20040;-59
2023/08/28 07:45:30;;;;;;;1123.68;999.90;;;;;;;;;;4947970;29;20053;-59
2023/08/28 07:47:58;;;;;;;1123.47;999.90;;;;;;;;;;4946437;28;20508;-59
2023/08/28 07:50:29;;;;;;;1103.88;999.90;;;;;;;;;;4949297;28;20044;-59
2023/08/28 07:52:55;;;;;;;1097.25;997.25;;;;;;;;;;4953076;28;20059;-59
2023/08/28 07:55:22;;;;;;;1104.32;999.90;;;;;;;;;;4950065;28;20050;-59
2023/08/28 07:57:48;;;;;;;1089.88;993.08;;;;;;;;;;4951251;28;20125;-58
2023/08/28 08:00:16;;;;;;;1076.85;981.13;;;;;;;;;;4947550;28;20043;-59
2023/08/28 08:02:42;;;;;;;1078.32;983.90;;;;;;;;;;4946783;28;20059;-60
2023/08/28 08:05:12;;;;;;;1079.10;983.67;;;;;;;;;;4948857;28;20051;-59
2023/08/28 08:07:42;;;;;;;1082.20;983.47;;;;;;;;;;4950393;29;20496;-59
2023/08/28 08:10:09;;;;;;;1065.95;972.95;;;;;;;;;;4951258;28;20047;-61
2023/08/28 08:12:38;;;;;;;1069.45;975.35;;;;;;;;;;4950018;28;20113;-59
2023/08/28 08:15:06;;;;;;;1076.32;980.70;;;;;;;;;;4946045;29;20031;-59
2023/08/28 08:17:34;;;;;;;1068.68;974.00;;;;;;;;;;4947994;29;20599;-58
2023/08/28 08:20:00;;;;;;;1066.38;971.75;;;;;;;;;;4940598;29;20054;-59
2023/08/28 08:22:27;;;;;;;1056.95;962.90;;;;;;;;;;4949465;28;20433;-58
2023/08/28 08:24:53;;;;;;;1054.45;962.30;;;;;;;;;;4947188;29;20066;-58
2023/08/28 08:27:20;;;;;;;1063.70;968.83;;;;;;;;;;4952322;28;20126;-58
2023/08/28 08:29:48;;;;;;;1062.85;967.00;;;;;;;;;;4950956;28;20119;-57
2023/08/28 08:32:15;;;;;;;1065.13;969.70;;;;;;;;;;4947800;28;20055;-58
2023/08/28 08:34:43;;;;;;;1054.72;963.90;;;;;;;;;;4949993;29;20102;-58
2023/08/28 08:37:09;;;;;;;1061.50;967.65;;;;;;;;;;4948930;28;20074;-57
2023/08/28 08:39:36;;;;;;;1066.45;969.75;;;;;;;;;;4949696;29;20118;-58
2023/08/28 08:42:03;;;;;;;1060.32;966.50;;;;;;;;;;4948357;29;20071;-59
2023/08/28 08:44:30;;;;;;;1066.97;970.83;;;;;;;;;;4948917;28;20107;-58
2023/08/28 08:46:56;;;;;;;1058.18;963.95;;;;;;;;;;4952693;29;20051;-57
2023/08/28 08:49:30;;;;;;;1055.68;962.03;;;;;;;;;;4949124;29;20055;-58
2023/08/28 08:51:59;;;;;;;1052.60;958.88;;;;;;;;;;4948629;28;20135;-58
2023/08/28 08:54:30;;;;;;;1044.25;952.40;;;;;;;;;;4946034;29;20043;-58
2023/08/28 08:57:00;;;;;;;1049.72;956.60;;;;;;;;;;4944457;29;20393;-57
2023/08/28 08:59:27;;;;;;;1061.70;965.40;;;;;;;;;;4949124;28;20040;-57
2023/08/28 09:01:54;;;;;;;1056.30;962.25;;;;;;;;;;4951441;29;20481;-58
2023/08/28 09:04:21;;;;;;;1049.15;956.80;;;;;;;;;;4943716;29;20374;-59
2023/08/28 09:06:48;;;;;;;1052.45;959.38;;;;;;;;;;4948993;28;20114;-61
2023/08/28 09:09:16;;;;;;;1066.75;973.05;;;;;;;;;;4948507;28;20063;-61
2023/08/28 09:11:45;;;;;;;1071.07;975.38;;;;;;;;;;4957187;28;20050;-61
2023/08/28 09:14:12;;;;;;;1067.63;972.42;;;;;;;;;;4962144;28;20038;-60
2023/08/28 09:16:39;;;;;;;1053.53;961.78;;;;;;;;;;4954578;28;20105;-61
2023/08/28 09:19:06;;;;;;;1058.20;963.92;;;;;;;;;;4947577;28;20477;-60
2023/08/28 09:21:34;;;;;;;1043.22;952.17;;;;;;;;;;4951274;28;20059;-60
2023/08/28 09:24:00;;;;;;;1043.93;950.25;;;;;;;;;;4947377;29;20047;-60
2023/08/28 09:26:27;;;;;;;1037.65;943.65;;;;;;;;;;4949201;29;20122;-60
2023/08/28 09:28:57;;;;;;;1041.75;950.22;;;;;;;;;;4952329;28;20094;-62
2023/08/28 09:31:28;;;;;;;1041.32;948.80;;;;;;;;;;4950518;28;20038;-61
2023/08/28 09:33:54;;;;;;;1052.20;956.80;;;;;;;;;;4947106;28;20047;-60
2023/08/28 09:36:35;;;;;;;1047.88;953.70;;;;;;;;;;4943168;28;20138;-61
2023/08/28 09:39:03;;;;;;;1049.07;956.58;;;;;;;;;;4950008;29;20740;-60
2023/08/28 09:41:36;;;;;;;1041.88;949.15;;;;;;;;;;4949569;28;20051;-60
2023/08/28 09:44:03;;;;;;;1042.75;951.38;;;;;;;;;;4951811;29;20062;-60
2023/08/28 09:46:30;;;;;;;1048.68;954.97;;;;;;;;;;4950341;28;20054;-60
2023/08/28 09:48:56;;;;;;;1052.13;958.80;;;;;;;;;;4949976;29;20050;-61
2023/08/28 09:51:36;;;;;;;1038.38;947.13;;;;;;;;;;4949194;28;20476;-61
2023/08/28 09:54:04;;;;;;;1046.05;953.63;;;;;;;;;;4947590;29;20400;-60
2023/08/28 09:56:31;;;;;;;1038.85;947.63;;;;;;;;;;4949231;29;20043;-61
2023/08/28 09:58:58;;;;;;;1052.00;958.65;;;;;;;;;;4950680;29;20059;-60
2023/08/28 10:01:27;;;;;;;1056.90;960.63;;;;;;;;;;4947754;28;20408;-60
2023/08/28 10:03:55;;;;;;;1031.43;941.50;;;;;;;;;;4943372;29;20043;-61
2023/08/28 10:06:24;;;;;;;1044.70;951.63;;;;;;;;;;4948332;28;20039;-61
2023/08/28 10:08:57;;;;;;;1037.25;945.35;;;;;;;;;;4947576;28;20044;-61
2023/08/28 10:11:33;;;;;;;1057.60;959.42;;;;;;;;;;4951495;28;20042;-61
2023/08/28 10:14:03;;;;;;;1041.47;946.70;;;;;;;;;;4961526;28;20100;-60
2023/08/28 10:16:33;;;;;;;1033.38;942.83;;;;;;;;;;4955715;28;20047;-61
2023/08/28 10:19:09;;;;;;;1031.55;941.10;;;;;;;;;;4954209;28;20400;-60
2023/08/28 10:21:35;;;;;;;1030.85;939.95;;;;;;;;;;4953731;28;20063;-60
2023/08/28 10:24:02;;;;;;;1029.70;939.25;;;;;;;;;;4951711;28;20047;-60
2023/08/28 10:26:29;;;;;;;1048.47;951.28;;;;;;;;;;4948250;28;20177;-60
2023/08/28 10:28:56;;;;;;;1044.63;952.15;;;;;;;;;;4950562;29;20094;-60
2023/08/28 10:31:23;;;;;;;1043.82;952.72;;;;;;;;;;4947204;28;20078;-59
2023/08/28 10:33:52;;;;;;;1045.57;951.95;;;;;;;;;;4945838;28;20055;-59
2023/08/28 10:36:20;;;;;;;1053.72;959.65;;;;;;;;;;4940732;29;20044;-60
2023/08/28 10:39:08;;;;;;;1073.07;975.90;;;;;;;;;;4946716;29;20051;-59
2023/08/28 10:41:36;;;;;;;1048.40;956.45;;;;;;;;;;4935260;29;20508;-58
2023/08/28 10:44:06;;;;;;;1048.07;957.25;;;;;;;;;;4944686;29;20049;-59
2023/08/28 10:46:33;;;;;;;1061.72;966.40;;;;;;;;;;4949011;29;20058;-58
2023/08/28 10:49:02;;;;;;;1051.80;959.78;;;;;;;;;;4950126;28;20139;-59
2023/08/28 10:51:33;;;;;;;1071.35;975.80;;;;;;;;;;4950053;29;20047;-67
2023/08/28 10:54:01;;;;;;;1070.13;975.78;;;;;;;;;;4967296;28;20043;-57
2023/08/28 10:56:29;;;;;;;1070.78;976.42;;;;;;;;;;4948431;28;20072;-58
2023/08/28 10:59:14;;;;;;;1075.75;980.55;;;;;;;;;;4953698;28;20485;-56
2023/08/28 11:01:52;;;;;;;1071.18;978.03;;;;;;;;;;4941833;28;20134;-58
2023/08/28 11:04:19;;;;;;;1073.70;979.42;;;;;;;;;;4946070;29;20536;-65
2023/08/28 11:06:46;;;;;;;1081.03;986.13;;;;;;;;;;4945966;29;20067;-56
2023/08/28 11:09:28;;;;;;;1067.57;974.75;;;;;;;;;;4946978;28;20051;-57
2023/08/28 11:11:57;;;;;;;1081.82;985.72;;;;;;;;;;4945256;28;20651;-57
2023/08/28 11:14:24;;;;;;;1083.60;986.83;;;;;;;;;;4941579;29;20077;-57
2023/08/28 11:17:04;;;;;;;1088.15;991.83;;;;;;;;;;4950450;29;20049;-58
2023/08/28 11:19:31;;;;;;;1080.72;985.92;;;;;;;;;;4942410;28;20047;-57
2023/08/28 11:21:58;;;;;;;1086.15;988.90;;;;;;;;;;4948893;28;20493;-57
2023/08/28 11:24:25;;;;;;;1073.60;978.30;;;;;;;;;;4953575;28;20032;-57
2023/08/28 11:26:52;;;;;;;1055.63;963.15;;;;;;;;;;4947059;28;20063;-57
2023/08/28 11:29:25;;;;;;;1066.60;970.38;;;;;;;;;;4952083;28;20051;-57
2023/08/28 11:31:52;;;;;;;1054.85;959.83;;;;;;;;;;4963351;28;20070;-56
2023/08/28 11:34:19;;;;;;;1041.13;950.30;;;;;;;;;;4949614;28;20536;-58
2023/08/28 11:36:45;;;;;;;1051.63;957.85;;;;;;;;;;4951046;28;20078;-57
2023/08/28 11:39:20;;;;;;;1050.20;954.33;;;;;;;;;;4949695;28;20477;-56
2023/08/28 11:41:47;;;;;;;1038.30;944.55;;;;;;;;;;4949304;28;20071;-54
2023/08/28 11:44:14;;;;;;;1040.15;942.85;;;;;;;;;;4952428;29;20048;-55
2023/08/28 11:46:41;;;;;;;1021.50;931.25;;;;;;;;;;4952643;29;20138;-56
2023/08/28 11:49:08;;;;;;;1021.53;930.65;;;;;;;;;;4953884;28;20101;-57
2023/08/28 11:51:37;;;;;;;1028.70;936.03;;;;;;;;;;4958058;28;20153;-57
2023/08/28 11:54:04;;;;;;;1026.80;933.72;;;;;;;;;;4960597;28;20455;-56
2023/08/28 11:56:33;;;;;;;1018.72;927.38;;;;;;;;;;4953492;28;20528;-55
2023/08/28 11:59:00;;;;;;;1028.82;936.88;;;;;;;;;;4960297;28;20043;-56
2023/08/28 12:01:29;;;;;;;1027.50;932.75;;;;;;;;;;4955381;28;20039;-58
2023/08/28 12:04:05;;;;;;;1024.80;933.25;;;;;;;;;;4949231;28;20541;-55
2023/08/28 12:06:41;;;;;;;1029.95;933.83;;;;;;;;;;4949166;29;20138;-56
2023/08/28 12:09:11;;;;;;;1026.35;934.63;;;;;;;;;;4951965;28;20046;-56
2023/08/28 12:11:38;;;;;;;1030.07;936.90;;;;;;;;;;4946971;29;20062;-56
2023/08/28 12:14:13;;;;;;;1020.67;931.72;;;;;;;;;;4953502;29;20066;-57
2023/08/28 12:16:40;;;;;;;1021.35;931.22;;;;;;;;;;4950965;29;20043;-57
2023/08/28 12:19:07;;;;;;;1039.88;945.17;;;;;;;;;;4944802;28;20058;-58
2023/08/28 12:21:34;;;;;;;1026.03;935.47;;;;;;;;;;4949919;29;20047;-58
2023/08/28 12:24:01;;;;;;;1034.05;940.40;;;;;;;;;;4950293;28;20035;-58
2023/08/28 12:26:30;;;;;;;1033.18;938.63;;;;;;;;;;4948513;29;21527;-56
2023/08/28 12:28:57;;;;;;;1029.22;937.42;;;;;;;;;;4952165;29;20488;-55
2023/08/28 12:31:27;;;;;;;1035.78;941.67;;;;;;;;;;4944378;29;20075;-58
2023/08/28 12:33:55;;;;;;;1026.18;933.35;;;;;;;;;;4948804;29;20050;-55
2023/08/28 12:36:43;;;;;;;1019.08;928.13;;;;;;;;;;4945876;29;20063;-56
2023/08/28 12:39:13;;;;;;;1017.55;926.83;;;;;;;;;;4951907;28;20046;-55
2023/08/28 12:41:48;;;;;;;1018.42;928.80;;;;;;;;;;4947257;29;20066;-59
2023/08/28 12:44:15;;;;;;;1020.70;926.95;;;;;;;;;;4950693;29;20046;-58
2023/08/28 12:46:42;;;;;;;1006.97;917.80;;;;;;;;;;4950654;29;20039;-62
2023/08/28 12:49:09;;;;;;;997.92;909.38;;;;;;;;;;4948417;29;20481;-59
2023/08/28 12:51:35;;;;;;;1018.15;924.13;;;;;;;;;;4945563;29;20485;-59
2023/08/28 12:54:02;;;;;;;1002.47;913.20;;;;;;;;;;4949615;28;20035;-58
2023/08/28 12:56:28;;;;;;;1012.35;919.95;;;;;;;;;;4949659;28;20493;-59
2023/08/28 12:58:55;;;;;;;1006.00;915.67;;;;;;;;;;4947821;29;20074;-59
2023/08/28 13:01:22;;;;;;;1005.45;913.60;;;;;;;;;;4950366;28;20445;-59
2023/08/28 13:03:48;;;;;;;1004.85;912.50;;;;;;;;;;4947700;29;20114;-59
2023/08/28 13:06:15;;;;;;;1006.30;913.38;;;;;;;;;;4947594;29;20054;-59
2023/08/28 13:08:41;;;;;;;994.10;903.63;;;;;;;;;;4948473;28;20063;-59
2023/08/28 13:11:08;;;;;;;988.47;899.40;;;;;;;;;;4951334;29;20155;-59
2023/08/28 13:13:34;;;;;;;991.13;899.60;;;;;;;;;;4950850;29;20057;-58
2023/08/28 13:16:02;;;;;;;998.58;906.63;;;;;;;;;;4951438;29;20145;-59
2023/08/28 13:18:28;;;;;;;987.50;898.10;;;;;;;;;;4946784;29;20062;-59
2023/08/28 13:20:55;;;;;;;995.33;904.45;;;;;;;;;;4949169;29;20060;-58
2023/08/28 13:23:21;;;;;;;996.65;901.90;;;;;;;;;;4949842;29;20055;-58
2023/08/28 13:25:48;;;;;;;983.88;894.63;;;;;;;;;;4947627;29;20130;-59
2023/08/28 13:28:17;;;;;;;987.85;897.55;;;;;;;;;;4947561;28;20437;-59
2023/08/28 13:30:46;;;;;;;977.55;888.25;;;;;;;;;;4947880;28;20051;-58
2023/08/28 13:33:13;;;;;;;979.63;891.35;;;;;;;;;;4949993;29;20430;-59
2023/08/28 13:35:40;;;;;;;987.58;897.72;;;;;;;;;;4948586;28;20680;-59
2023/08/28 13:38:06;;;;;;;976.45;886.25;;;;;;;;;;4952131;29;20035;-59
2023/08/28 13:40:33;;;;;;;985.08;892.20;;;;;;;;;;4947350;29;20373;-59
2023/08/28 13:43:03;;;;;;;978.60;887.70;;;;;;;;;;4947870;28;20053;-59
2023/08/28 13:45:30;;;;;;;971.22;883.00;;;;;;;;;;4947341;29;20604;-60
2023/08/28 13:47:57;;;;;;;997.72;901.85;;;;;;;;;;4946854;28;20110;-59
2023/08/28 13:50:24;;;;;;;989.15;896.17;;;;;;;;;;4948871;28;20047;-57